Time;durP1;ratioP1;P1;durP2;ratioP2;P2;SDS_P1;SDS_P2;PMS_P1;PMS_P2;Temp;Humidity;BMP_temperature;BMP_pressure;BME280_temperature;BME280_humidity;BME280_pressure;Samples;Min_cycle;Max_cycle;Signal;HPM_P1;HPM_P2
2024/02/26 00:01:39;;;;;;;6.72;3.85;;;;;;;10.48;51.99;97994.97;4134275;28;20438;-71
2024/02/26 00:03:42;;;;;;;8.02;4.47;;;;;;;10.24;52.82;97993.53;4133936;28;20133;-70
2024/02/26 00:05:42;;;;;;;8.18;4.30;;;;;;;10.19;53.08;97993.28;4135645;28;20026;-70
2024/02/26 00:07:42;;;;;;;8.45;4.50;;;;;;;10.43;52.41;97990.22;4142099;28;20797;-71
2024/02/26 00:09:43;;;;;;;7.72;4.35;;;;;;;10.40;52.56;97982.56;4147882;28;20026;-70
2024/02/26 00:11:43;;;;;;;6.70;4.00;;;;;;;10.44;52.46;97993.69;4149169;28;20038;-70
2024/02/26 00:13:43;;;;;;;7.03;3.67;;;;;;;10.47;52.30;97989.84;4134082;28;20092;-71
2024/02/26 00:15:44;;;;;;;8.77;4.43;;;;;;;10.34;52.76;97988.69;4132870;28;20301;-70
2024/02/26 00:17:44;;;;;;;8.35;4.40;;;;;;;10.40;52.60;97987.91;4134410;28;20026;-71
2024/02/26 00:19:45;;;;;;;9.03;4.40;;;;;;;10.49;52.49;97991.28;4133935;28;20418;-71
2024/02/26 00:21:45;;;;;;;7.88;4.60;;;;;;;10.22;53.17;97993.72;4133739;28;20277;-70
2024/02/26 00:23:45;;;;;;;8.57;5.13;;;;;;;10.14;53.48;97997.34;4133995;28;20073;-71
2024/02/26 00:25:46;;;;;;;7.70;4.50;;;;;;;10.25;53.38;97995.19;4134992;28;20037;-71
2024/02/26 00:27:46;;;;;;;7.75;4.30;;;;;;;10.26;53.19;97994.16;4139846;28;20305;-70
2024/02/26 00:29:47;;;;;;;8.60;4.82;;;;;;;10.19;53.42;97991.44;4140932;28;20030;-70
2024/02/26 00:31:47;;;;;;;8.88;4.65;;;;;;;10.09;53.69;98001.59;4141030;28;20459;-71
2024/02/26 00:33:48;;;;;;;5.95;3.60;;;;;;;10.23;53.44;97997.22;4140480;28;21350;-72
2024/02/26 00:35:48;;;;;;;6.80;3.57;;;;;;;10.26;53.29;98002.16;4151811;28;20054;-70
2024/02/26 00:37:49;;;;;;;5.90;3.08;;;;;;;10.34;53.02;97991.34;4152487;28;20026;-71
2024/02/26 00:39:49;;;;;;;5.82;3.38;;;;;;;10.39;52.86;97994.28;4152848;28;20048;-70
2024/02/26 00:41:51;;;;;;;6.70;3.57;;;;;;;10.35;52.88;97997.50;4155441;28;20627;-70
2024/02/26 00:43:52;;;;;;;6.80;3.30;;;;;;;10.39;52.93;97982.78;4149687;28;20108;-70
2024/02/26 00:45:53;;;;;;;6.38;3.30;;;;;;;10.45;52.87;97990.00;4149210;28;20436;-71
2024/02/26 00:47:54;;;;;;;8.43;3.65;;;;;;;10.45;52.94;97985.50;4149468;28;20117;-71
2024/02/26 00:49:54;;;;;;;6.22;3.30;;;;;;;10.54;52.71;97978.16;4149254;28;20509;-70
2024/02/26 00:51:55;;;;;;;6.00;3.00;;;;;;;10.55;52.76;97976.31;4148526;28;20120;-71
2024/02/26 00:53:56;;;;;;;6.25;3.58;;;;;;;10.32;53.09;97982.69;4150478;28;20045;-70
2024/02/26 00:55:58;;;;;;;5.63;3.38;;;;;;;10.24;53.54;97982.84;4149248;28;20018;-70
2024/02/26 00:57:59;;;;;;;5.63;3.00;;;;;;;10.41;53.06;97984.22;4148100;28;20061;-71
2024/02/26 01:00:00;;;;;;;7.55;3.42;;;;;;;10.50;52.78;97986.75;4149126;28;20033;-70
2024/02/26 01:02:02;;;;;;;6.63;3.70;;;;;;;10.55;52.80;97984.34;4148737;28;20036;-72
2024/02/26 01:04:03;;;;;;;5.90;3.25;;;;;;;10.53;52.83;97983.69;4162174;28;20054;-71
2024/02/26 01:06:03;;;;;;;6.20;3.35;;;;;;;10.52;52.82;97979.38;4160201;28;20033;-71
2024/02/26 01:08:04;;;;;;;6.00;3.28;;;;;;;10.59;52.69;97988.25;4149589;28;20026;-71
2024/02/26 01:10:08;;;;;;;7.15;3.50;;;;;;;10.52;52.95;97990.06;4148863;28;20018;-71
2024/02/26 01:12:08;;;;;;;6.90;3.88;;;;;;;10.59;52.84;97981.09;4145195;28;20038;-72
2024/02/26 01:14:09;;;;;;;8.70;4.13;;;;;;;10.61;52.83;97983.56;4140484;28;20443;-70
2024/02/26 01:16:10;;;;;;;5.07;2.78;;;;;;;10.53;52.95;97981.84;4148821;28;20032;-70
2024/02/26 01:18:12;;;;;;;6.78;3.45;;;;;;;10.53;52.91;97989.06;4148933;28;20022;-71
2024/02/26 01:20:12;;;;;;;5.60;3.03;;;;;;;10.54;53.15;97988.03;4148553;28;20502;-71
2024/02/26 01:22:13;;;;;;;8.57;4.22;;;;;;;10.29;53.88;97991.13;4148454;28;20029;-71
2024/02/26 01:24:13;;;;;;;6.80;3.67;;;;;;;10.25;54.09;97995.19;4148523;28;20109;-71
2024/02/26 01:26:13;;;;;;;6.28;3.78;;;;;;;10.10;54.53;98005.94;4148110;28;20034;-71
2024/02/26 01:28:14;;;;;;;6.78;3.55;;;;;;;10.08;54.58;98000.78;4148430;28;20034;-71
2024/02/26 01:30:16;;;;;;;7.07;4.13;;;;;;;9.96;55.13;97995.16;4148421;28;20032;-70
2024/02/26 01:32:17;;;;;;;7.80;4.68;;;;;;;9.79;55.79;98002.56;4148348;28;20237;-70
2024/02/26 01:34:18;;;;;;;8.85;3.70;;;;;;;9.99;55.42;98005.44;4148515;28;20025;-71
2024/02/26 01:36:18;;;;;;;10.18;5.63;;;;;;;9.85;55.55;98001.00;4147140;28;20033;-71
2024/02/26 01:38:19;;;;;;;8.27;4.60;;;;;;;9.81;55.61;98010.38;4148363;28;20358;-71
2024/02/26 01:40:19;;;;;;;7.95;4.68;;;;;;;10.04;55.26;97998.69;4147017;28;20030;-72
2024/02/26 01:42:20;;;;;;;8.40;4.90;;;;;;;9.91;55.62;98018.91;4148288;28;20034;-70
2024/02/26 01:44:21;;;;;;;6.97;4.15;;;;;;;9.95;55.55;98014.84;4148058;28;20359;-71
2024/02/26 01:46:22;;;;;;;;;;;;;;;9.81;56.12;98035.25;4148691;28;20471;-71
2024/02/26 01:48:23;;;;;;;7.13;4.80;;;;;;;9.87;55.70;98025.63;4147773;28;19943;-70
2024/02/26 01:50:23;;;;;;;7.38;3.85;;;;;;;9.89;55.67;98036.13;4148108;28;20116;-70
2024/02/26 01:52:24;;;;;;;7.68;4.20;;;;;;;9.75;55.99;98043.16;4147038;28;20157;-71
2024/02/26 01:54:25;;;;;;;7.07;4.07;;;;;;;9.79;55.95;98033.75;4147946;28;20034;-70
2024/02/26 01:56:30;;;;;;;8.00;4.22;;;;;;;9.88;55.60;98042.47;4147878;28;20718;-70
2024/02/26 01:58:31;;;;;;;6.15;3.47;;;;;;;9.89;55.56;98036.13;4148325;28;20028;-71
2024/02/26 02:00:32;;;;;;;;;;;;;;;10.11;55.41;98035.09;4148401;28;20028;-69
2024/02/26 02:02:32;;;;;;;6.10;3.30;;;;;;;10.05;54.99;98035.88;4147291;28;20016;-70
2024/02/26 02:04:33;;;;;;;5.75;2.85;;;;;;;10.04;55.10;98028.88;4146636;28;20371;-74
2024/02/26 02:06:35;;;;;;;6.85;3.40;;;;;;;10.18;54.77;98018.34;4147538;28;20386;-70
2024/02/26 02:08:38;;;;;;;5.80;3.15;;;;;;;10.18;54.76;98021.00;4146743;28;20033;-70
2024/02/26 02:10:39;;;;;;;5.85;2.90;;;;;;;10.30;54.51;98019.44;4148130;28;20032;-71
2024/02/26 02:12:40;;;;;;;5.05;2.90;;;;;;;10.32;54.61;98012.06;4162333;28;20033;-71
2024/02/26 02:14:41;;;;;;;;;;;;;;;10.07;55.23;98003.63;4147595;28;20387;-71
2024/02/26 02:16:41;;;;;;;7.13;3.40;;;;;;;9.50;56.75;98001.66;4147458;28;19916;-72
2024/02/26 02:18:42;;;;;;;8.48;3.70;;;;;;;9.41;57.30;97997.44;4147613;28;20247;-71
2024/02/26 02:20:42;;;;;;;6.85;4.20;;;;;;;9.29;57.95;97978.44;4147702;28;20457;-71
2024/02/26 02:22:44;;;;;;;10.18;4.10;;;;;;;9.52;57.70;97970.28;4147271;28;20363;-71
2024/02/26 02:24:46;;;;;;;6.80;3.90;;;;;;;9.76;56.76;97973.59;4146733;28;20036;-70
2024/02/26 02:26:47;;;;;;;6.50;3.17;;;;;;;9.92;56.48;97972.50;4147730;28;20021;-71
2024/02/26 02:28:48;;;;;;;8.13;3.70;;;;;;;9.81;56.81;97981.88;4147877;28;20537;-71
2024/02/26 02:30:49;;;;;;;7.18;3.92;;;;;;;10.09;55.94;97981.09;4153584;28;20048;-70
2024/02/26 02:32:50;;;;;;;5.78;3.25;;;;;;;9.96;56.41;97960.44;4159159;28;20049;-71
2024/02/26 02:34:51;;;;;;;7.80;3.75;;;;;;;10.09;55.80;97975.75;4158824;28;20060;-74
2024/02/26 02:36:52;;;;;;;5.97;3.25;;;;;;;10.18;55.50;97972.94;4159730;28;20041;-71
2024/02/26 02:38:52;;;;;;;;;;;;;;;10.07;55.87;98006.31;4159660;28;20038;-71
2024/02/26 02:40:53;;;;;;;5.95;4.05;;;;;;;9.65;57.06;98024.78;4158192;28;19923;-71
2024/02/26 02:42:54;;;;;;;7.20;4.10;;;;;;;9.90;56.50;98027.09;4151908;28;20033;-71
2024/02/26 02:45:07;;;;;;;6.82;4.03;;;;;;;9.62;57.37;98035.84;4162213;28;20037;-72
2024/02/26 02:47:07;;;;;;;6.30;3.60;;;;;;;9.94;56.46;98020.34;4136800;28;20084;-70
2024/02/26 02:49:10;;;;;;;6.60;3.70;;;;;;;9.97;56.45;98020.78;4137260;28;20466;-72
2024/02/26 02:51:10;;;;;;;6.57;3.25;;;;;;;10.12;55.86;98033.28;4145068;28;20396;-71
2024/02/26 02:53:11;;;;;;;6.90;3.78;;;;;;;9.99;56.52;98041.97;4147102;28;20021;-71
2024/02/26 02:55:12;;;;;;;6.90;3.80;;;;;;;10.14;56.01;98021.38;4132319;28;20414;-70
2024/02/26 02:57:12;;;;;;;;;;;;;;;10.34;55.89;98019.91;4131353;28;20582;-71
2024/02/26 02:59:13;;;;;;;5.80;2.87;;;;;;;10.15;55.95;98020.38;4129545;28;19949;-71
2024/02/26 03:01:13;;;;;;;7.13;3.22;;;;;;;10.13;56.12;98021.56;4130491;28;20070;-71
2024/02/26 03:03:14;;;;;;;6.53;2.97;;;;;;;10.26;55.73;98020.88;4132541;28;20026;-71
2024/02/26 03:05:14;;;;;;;5.50;2.83;;;;;;;10.02;56.49;98040.75;4140562;28;20030;-70
2024/02/26 03:07:14;;;;;;;6.05;3.03;;;;;;;10.26;55.64;98029.69;4149216;28;20052;-70
2024/02/26 03:09:16;;;;;;;4.93;2.50;;;;;;;10.24;55.84;98036.25;4164007;28;20026;-71
2024/02/26 03:11:17;;;;;;;5.10;2.65;;;;;;;10.43;55.40;98038.28;4163867;28;20038;-69
2024/02/26 03:13:17;;;;;;;4.57;2.50;;;;;;;10.35;55.55;98051.75;4165292;28;20029;-71
2024/02/26 03:15:17;;;;;;;4.68;2.42;;;;;;;10.55;55.12;98040.44;4161015;28;20013;-71
2024/02/26 03:17:18;;;;;;;5.35;2.42;;;;;;;10.45;55.14;98044.28;4163787;28;20021;-71
2024/02/26 03:19:18;;;;;;;6.13;2.60;;;;;;;10.42;55.28;98050.00;4163647;28;20034;-70
2024/02/26 03:21:19;;;;;;;6.27;3.10;;;;;;;10.47;55.32;98056.63;4164238;28;20022;-73
2024/02/26 03:23:20;;;;;;;6.32;2.83;;;;;;;10.36;55.40;98056.09;4151794;28;20279;-71
2024/02/26 03:25:21;;;;;;;7.55;3.75;;;;;;;10.39;55.43;98055.72;4147012;28;20034;-72
2024/02/26 03:27:23;;;;;;;5.97;3.33;;;;;;;10.29;55.70;98056.03;4147033;28;20109;-70
2024/02/26 03:29:23;;;;;;;6.68;3.17;;;;;;;10.35;55.38;98053.59;4146576;28;20288;-71
2024/02/26 03:31:24;;;;;;;5.55;2.70;;;;;;;10.33;55.53;98053.78;4147195;28;20030;-71
2024/02/26 03:33:24;;;;;;;4.65;2.35;;;;;;;10.51;54.95;98047.19;4142720;28;20018;-71
2024/02/26 03:35:25;;;;;;;4.93;2.42;;;;;;;10.63;54.64;98050.19;4130671;28;20033;-70
2024/02/26 03:37:25;;;;;;;5.47;2.90;;;;;;;10.35;55.22;98065.13;4130848;28;20545;-72
2024/02/26 03:39:26;;;;;;;5.50;3.20;;;;;;;10.33;55.36;98067.16;4130520;28;20705;-72
2024/02/26 03:41:26;;;;;;;6.47;3.17;;;;;;;10.43;55.18;98069.53;4130218;28;20038;-71
2024/02/26 03:43:27;;;;;;;5.55;2.85;;;;;;;10.29;55.49;98068.56;4130156;28;20610;-72
2024/02/26 03:45:27;;;;;;;5.63;2.88;;;;;;;10.33;55.29;98058.31;4130693;28;20090;-71
2024/02/26 03:47:28;;;;;;;5.38;2.67;;;;;;;10.38;55.18;98064.78;4130700;28;20084;-71
2024/02/26 03:49:28;;;;;;;5.60;2.67;;;;;;;10.50;55.07;98064.22;4130960;28;20033;-70
2024/02/26 03:51:31;;;;;;;5.15;2.63;;;;;;;10.54;54.97;98062.84;4130702;28;20479;-71
2024/02/26 03:53:31;;;;;;;5.85;3.10;;;;;;;10.49;55.03;98059.91;4130899;28;20073;-71
2024/02/26 03:55:31;;;;;;;5.80;3.08;;;;;;;10.36;55.44;98065.94;4130812;28;20030;-72
2024/02/26 03:57:32;;;;;;;6.70;3.70;;;;;;;10.32;55.79;98056.66;4129873;28;20030;-71
2024/02/26 03:59:32;;;;;;;6.03;3.28;;;;;;;10.40;55.42;98056.56;4130651;28;20746;-71
2024/02/26 04:01:33;;;;;;;7.00;3.05;;;;;;;10.26;55.75;98069.75;4130189;28;20034;-72
2024/02/26 04:03:34;;;;;;;7.07;3.25;;;;;;;10.06;56.56;98058.06;4130042;28;20065;-71
2024/02/26 04:05:34;;;;;;;6.25;3.55;;;;;;;10.02;56.95;98049.59;4130482;28;20030;-71
2024/02/26 04:07:35;;;;;;;6.35;4.00;;;;;;;10.00;57.06;98051.66;4130839;28;20113;-71
2024/02/26 04:09:36;;;;;;;6.43;3.13;;;;;;;9.98;57.30;98048.34;4129065;28;20541;-71
2024/02/26 04:11:36;;;;;;;5.85;3.60;;;;;;;9.93;57.18;98046.22;4130331;28;20022;-72
2024/02/26 04:13:39;;;;;;;9.17;3.53;;;;;;;9.96;57.27;98045.88;4140930;28;20106;-71
2024/02/26 04:15:52;;;;;;;6.47;3.33;;;;;;;9.94;57.95;98041.72;4152051;28;20257;-71
2024/02/26 04:17:52;;;;;;;8.85;3.42;;;;;;;9.81;57.95;98031.72;4133289;28;20034;-71
2024/02/26 04:19:52;;;;;;;8.38;3.85;;;;;;;9.87;57.76;98036.28;4133360;28;20606;-71
2024/02/26 04:21:54;;;;;;;9.55;3.72;;;;;;;9.94;57.49;98023.03;4131581;28;20038;-70
2024/02/26 04:24:00;;;;;;;;;;;;;;;9.94;58.10;98021.19;4133916;28;20470;-70
2024/02/26 04:26:01;;;;;;;7.13;3.20;;;;;;;9.88;57.94;98019.28;4133499;28;20009;-70
2024/02/26 04:28:01;;;;;;;8.27;3.30;;;;;;;10.11;57.48;98027.09;4133448;28;20525;-69
2024/02/26 04:30:03;;;;;;;5.85;3.20;;;;;;;10.23;57.14;98029.25;4133371;28;20419;-71
2024/02/26 04:32:05;;;;;;;5.75;2.92;;;;;;;10.43;56.79;98024.13;4132968;28;20023;-71
2024/02/26 04:34:05;;;;;;;6.15;2.90;;;;;;;10.58;56.51;98029.38;4133608;28;20030;-71
2024/02/26 04:36:13;;;;;;;6.07;2.97;;;;;;;10.13;57.14;98033.06;4132011;28;20457;-70
2024/02/26 04:38:13;;;;;;;5.57;2.97;;;;;;;10.00;57.63;98027.63;4131823;28;20368;-72
2024/02/26 04:40:14;;;;;;;5.88;2.92;;;;;;;9.88;58.00;98034.47;4133459;28;20557;-70
2024/02/26 04:42:14;;;;;;;5.40;2.42;;;;;;;10.03;57.48;98035.22;4132528;28;20657;-70
2024/02/26 04:44:15;;;;;;;4.90;2.67;;;;;;;10.26;56.85;98028.88;4136320;28;20022;-71
2024/02/26 04:46:15;;;;;;;5.72;2.15;;;;;;;10.37;56.37;98027.53;4135311;28;20626;-71
2024/02/26 04:48:16;;;;;;;5.40;2.20;;;;;;;10.13;56.88;98032.25;4134558;28;20562;-71
2024/02/26 04:50:16;;;;;;;6.70;2.25;;;;;;;10.27;56.73;98030.53;4133296;28;20030;-70
2024/02/26 04:52:18;;;;;;;5.22;2.80;;;;;;;10.25;56.82;98028.03;4132961;28;20057;-71
2024/02/26 04:54:18;;;;;;;4.13;1.90;;;;;;;10.36;56.92;98023.19;4134287;28;20094;-70
2024/02/26 04:56:21;;;;;;;5.10;2.33;;;;;;;10.44;56.74;98023.06;4135685;28;20054;-70
2024/02/26 04:58:21;;;;;;;4.03;1.90;;;;;;;10.33;57.19;98016.41;4134644;28;20038;-71
2024/02/26 05:00:22;;;;;;;4.18;2.10;;;;;;;10.15;57.33;98016.88;4134918;28;20036;-71
2024/02/26 05:02:22;;;;;;;4.13;2.17;;;;;;;9.89;58.16;98022.78;4138041;28;20038;-71
2024/02/26 05:04:22;;;;;;;5.75;2.20;;;;;;;9.91;58.18;98007.41;4144022;28;20104;-71
2024/02/26 05:06:23;;;;;;;5.17;2.13;;;;;;;9.83;58.24;98008.34;4142344;28;20033;-70
2024/02/26 05:08:24;;;;;;;5.13;2.00;;;;;;;9.76;58.38;98008.28;4142276;28;20041;-71
2024/02/26 05:10:24;;;;;;;4.07;1.92;;;;;;;9.75;58.40;98003.94;4138103;28;20113;-70
2024/02/26 05:12:25;;;;;;;4.33;2.00;;;;;;;9.79;58.58;97997.22;4137140;28;20145;-70
2024/02/26 05:14:26;;;;;;;4.60;2.00;;;;;;;9.92;58.34;97998.38;4140362;28;20315;-71
2024/02/26 05:16:30;;;;;;;4.15;1.98;;;;;;;10.05;58.11;98006.50;4147195;28;20076;-71
2024/02/26 05:18:31;;;;;;;4.63;2.10;;;;;;;9.95;57.94;98006.00;4148874;28;20026;-70
2024/02/26 05:20:35;;;;;;;4.90;1.90;;;;;;;9.92;57.90;98006.41;4142504;28;20391;-69
2024/02/26 05:22:35;;;;;;;3.42;1.60;;;;;;;9.94;57.61;98005.19;4132142;28;20030;-71
2024/02/26 05:24:37;;;;;;;3.92;1.50;;;;;;;10.11;56.94;98005.72;4131188;28;20336;-71
2024/02/26 05:26:38;;;;;;;4.22;1.70;;;;;;;10.26;56.61;98002.16;4132047;28;20041;-71
2024/02/26 05:28:39;;;;;;;5.85;1.70;;;;;;;10.21;56.94;98009.91;4131247;28;20034;-71
2024/02/26 05:30:40;;;;;;;;;;;;;;;10.41;55.96;98008.28;4132962;28;20106;-71
2024/02/26 05:32:40;;;;;;;4.23;1.40;;;;;;;10.13;56.65;98000.22;4132193;28;20367;-70
2024/02/26 05:34:41;;;;;;;4.25;2.22;;;;;;;10.13;56.60;97998.38;4132455;28;20026;-70
2024/02/26 05:36:41;;;;;;;3.30;1.63;;;;;;;10.15;56.44;98006.19;4132943;28;20029;-70
2024/02/26 05:38:42;;;;;;;3.92;1.48;;;;;;;10.32;56.24;98001.38;4133630;28;20094;-70
2024/02/26 05:40:42;;;;;;;3.97;1.33;;;;;;;10.20;56.40;97998.44;4133623;28;20097;-70
2024/02/26 05:42:44;;;;;;;3.22;1.20;;;;;;;10.45;55.96;98008.72;4132477;28;20140;-70
2024/02/26 05:44:45;;;;;;;3.88;1.83;;;;;;;10.51;56.13;98013.28;4141928;28;20053;-71
2024/02/26 05:46:47;;;;;;;3.60;1.58;;;;;;;10.55;56.29;98011.88;4142647;28;20038;-70
2024/02/26 05:48:51;;;;;;;3.22;1.48;;;;;;;10.64;56.18;98012.56;4147904;28;20026;-71
2024/02/26 05:51:01;;;;;;;3.47;1.42;;;;;;;10.68;56.34;98021.00;4154687;28;20030;-71
2024/02/26 05:53:02;;;;;;;4.95;1.90;;;;;;;10.40;56.96;98017.31;4164724;28;20018;-73
2024/02/26 05:55:03;;;;;;;4.03;1.63;;;;;;;10.50;56.89;98018.81;4162110;28;20030;-72
2024/02/26 05:57:03;;;;;;;7.07;1.90;;;;;;;10.40;56.99;98019.97;4161489;28;20291;-71
2024/02/26 05:59:04;;;;;;;6.75;1.83;;;;;;;10.48;57.01;98020.88;4161493;28;20029;-70
2024/02/26 06:01:04;;;;;;;3.70;1.70;;;;;;;10.42;56.89;98027.81;4161522;28;20030;-71
2024/02/26 06:03:05;;;;;;;4.22;1.65;;;;;;;10.49;56.72;98033.19;4153064;28;20447;-71
2024/02/26 06:05:07;;;;;;;3.47;1.50;;;;;;;10.61;56.58;98037.00;4149014;28;20078;-71
2024/02/26 06:07:07;;;;;;;6.60;1.67;;;;;;;10.67;56.47;98036.22;4146804;28;20033;-72
2024/02/26 06:09:08;;;;;;;4.88;1.83;;;;;;;10.68;56.75;98047.72;4147978;28;20541;-71
2024/02/26 06:11:08;;;;;;;5.10;1.60;;;;;;;10.76;56.62;98051.09;4147898;28;20047;-72
2024/02/26 06:13:09;;;;;;;4.53;1.80;;;;;;;10.80;56.60;98048.00;4148305;28;20277;-71
2024/02/26 06:15:10;;;;;;;4.28;1.73;;;;;;;10.86;56.78;98055.28;4148041;28;20030;-69
2024/02/26 06:17:10;;;;;;;4.43;1.40;;;;;;;10.88;56.58;98059.41;4146602;28;20022;-71
2024/02/26 06:19:10;;;;;;;4.07;2.03;;;;;;;10.72;57.02;98071.19;4146670;28;20394;-70
2024/02/26 06:21:11;;;;;;;3.90;1.95;;;;;;;10.54;57.60;98085.03;4147509;28;20352;-70
2024/02/26 06:23:11;;;;;;;4.28;1.70;;;;;;;10.59;57.61;98081.78;4146363;28;20061;-70
2024/02/26 06:25:12;;;;;;;5.13;1.90;;;;;;;10.34;58.32;98092.84;4143166;28;20033;-72
2024/02/26 06:27:12;;;;;;;5.50;2.60;;;;;;;10.13;59.50;98110.50;4147263;28;20734;-71
2024/02/26 06:29:13;;;;;;;6.20;2.70;;;;;;;10.27;59.13;98105.31;4145727;28;20046;-72
2024/02/26 06:31:13;;;;;;;5.93;3.00;;;;;;;10.00;59.99;98126.38;4160708;28;20670;-71
2024/02/26 06:33:14;;;;;;;4.45;2.70;;;;;;;9.78;60.63;98122.81;4147825;28;20070;-69
2024/02/26 06:35:14;;;;;;;5.90;3.00;;;;;;;9.86;60.82;98135.25;4146683;28;20030;-71
2024/02/26 06:37:15;;;;;;;7.07;2.75;;;;;;;9.90;60.72;98136.53;4145711;28;20538;-70
2024/02/26 06:39:16;;;;;;;4.60;2.53;;;;;;;9.76;61.42;98141.69;4146668;28;20030;-71
2024/02/26 06:41:16;;;;;;;4.88;2.45;;;;;;;9.86;61.15;98144.09;4146218;28;20049;-71
2024/02/26 06:43:16;;;;;;;5.63;2.63;;;;;;;9.76;61.57;98136.34;4146517;28;20493;-71
2024/02/26 06:45:19;;;;;;;6.05;2.80;;;;;;;9.88;61.36;98135.88;4146467;28;20053;-71
2024/02/26 06:47:20;;;;;;;5.45;2.63;;;;;;;10.04;60.88;98124.16;4146429;28;20073;-69
2024/02/26 06:49:20;;;;;;;5.45;2.25;;;;;;;10.09;60.63;98109.25;4147310;28;20032;-71
2024/02/26 06:51:20;;;;;;;4.83;2.67;;;;;;;10.18;60.54;98119.78;4146877;28;20116;-70
2024/02/26 06:53:21;;;;;;;4.68;2.42;;;;;;;10.23;60.31;98104.03;4146490;28;20265;-70
2024/02/26 06:55:22;;;;;;;6.15;3.53;;;;;;;10.34;60.14;98097.38;4146410;28;20075;-70
2024/02/26 06:57:22;;;;;;;6.10;3.55;;;;;;;10.17;60.79;98102.13;4147081;28;20509;-70
2024/02/26 06:59:23;;;;;;;5.60;2.83;;;;;;;10.29;60.62;98103.28;4146928;28;20105;-69
2024/02/26 07:01:24;;;;;;;;;;;;;;;10.41;61.38;98111.63;4146983;28;20077;-71
2024/02/26 07:03:25;;;;;;;5.40;2.57;;;;;;;10.38;60.26;98118.19;4146254;28;20617;-71
2024/02/26 07:05:26;;;;;;;6.05;2.33;;;;;;;10.36;60.33;98117.53;4146433;28;20464;-70
2024/02/26 07:07:27;;;;;;;5.28;2.50;;;;;;;10.42;60.41;98113.28;4146532;28;20485;-71
2024/02/26 07:09:27;;;;;;;5.30;2.20;;;;;;;10.49;60.19;98114.19;4146350;28;20112;-70
2024/02/26 07:11:27;;;;;;;4.47;2.40;;;;;;;10.57;60.21;98126.59;4144971;28;20279;-70
2024/02/26 07:13:28;;;;;;;4.82;2.33;;;;;;;10.60;60.03;98126.19;4145679;28;20025;-70
2024/02/26 07:15:28;;;;;;;5.15;2.63;;;;;;;10.54;60.14;98122.44;4146740;28;20034;-71
2024/02/26 07:17:29;;;;;;;5.73;2.80;;;;;;;10.33;60.77;98136.59;4145887;28;20022;-70
2024/02/26 07:19:29;;;;;;;10.57;3.70;;;;;;;10.33;61.03;98131.25;4146635;28;20430;-70
2024/02/26 07:21:30;;;;;;;8.10;3.60;;;;;;;10.39;61.02;98135.84;4146030;28;20029;-69
2024/02/26 07:23:31;;;;;;;7.38;3.13;;;;;;;10.36;60.99;98148.72;4152163;28;20308;-70
2024/02/26 07:25:31;;;;;;;8.48;3.55;;;;;;;10.24;61.66;98132.38;4162709;28;20038;-70
2024/02/26 07:27:32;;;;;;;11.05;3.78;;;;;;;10.40;61.46;98137.50;4150538;28;20025;-69
2024/02/26 07:29:33;;;;;;;5.93;3.30;;;;;;;10.53;60.99;98138.66;4146619;28;20044;-71
2024/02/26 07:31:33;;;;;;;8.95;4.45;;;;;;;10.19;62.24;98145.50;4146144;28;20264;-71
2024/02/26 07:33:34;;;;;;;11.35;4.82;;;;;;;10.20;62.33;98142.63;4146861;28;20557;-71
2024/02/26 07:35:36;;;;;;;8.85;4.28;;;;;;;10.26;62.33;98152.53;4146286;28;20536;-71
2024/02/26 07:37:36;;;;;;;8.45;3.78;;;;;;;10.35;62.09;98155.94;4146911;28;20038;-71
2024/02/26 07:39:37;;;;;;;8.27;4.00;;;;;;;10.41;61.92;98152.50;4146943;28;20032;-71
2024/02/26 07:41:38;;;;;;;6.45;3.45;;;;;;;10.50;61.89;98152.38;4146866;28;20323;-70
2024/02/26 07:43:40;;;;;;;7.57;4.03;;;;;;;10.52;61.81;98155.69;4145322;28;20120;-71
2024/02/26 07:45:41;;;;;;;8.30;4.00;;;;;;;10.44;62.00;98152.16;4146021;28;20022;-70
2024/02/26 07:47:41;;;;;;;10.98;4.07;;;;;;;10.45;61.96;98164.50;4144355;28;20037;-71
2024/02/26 07:49:41;;;;;;;6.28;3.60;;;;;;;10.57;61.64;98158.66;4148269;28;20090;-71
2024/02/26 07:51:42;;;;;;;8.50;3.03;;;;;;;10.52;61.46;98163.72;4161276;28;20022;-71
2024/02/26 07:53:42;;;;;;;7.07;2.80;;;;;;;10.52;61.15;98155.69;4161284;28;20757;-70
2024/02/26 07:55:43;;;;;;;4.43;2.38;;;;;;;10.64;60.71;98162.19;4150848;28;20088;-70
2024/02/26 07:57:43;;;;;;;5.80;2.20;;;;;;;10.75;60.51;98161.69;4149388;28;20530;-71
2024/02/26 07:59:44;;;;;;;4.47;1.98;;;;;;;10.92;59.87;98164.09;4149227;28;20272;-70
2024/02/26 08:01:52;;;;;;;3.75;1.77;;;;;;;10.99;59.49;98166.81;4148073;28;20084;-70
2024/02/26 08:03:55;;;;;;;4.70;2.03;;;;;;;11.03;59.49;98165.41;4148929;28;20050;-71
2024/02/26 08:05:56;;;;;;;4.32;1.92;;;;;;;11.04;59.70;98165.22;4148548;28;20534;-73
2024/02/26 08:07:56;;;;;;;4.32;1.88;;;;;;;11.01;59.14;98168.28;4147862;28;20096;-72
2024/02/26 08:09:57;;;;;;;3.70;1.75;;;;;;;11.06;59.02;98176.53;4152241;28;20482;-70
2024/02/26 08:11:57;;;;;;;3.95;1.85;;;;;;;11.12;59.03;98179.47;4166341;28;20021;-72
2024/02/26 08:13:58;;;;;;;4.03;2.10;;;;;;;11.12;58.63;98182.13;4161998;28;20018;-72
2024/02/26 08:15:59;;;;;;;4.53;2.13;;;;;;;11.02;59.15;98182.47;4154577;28;20295;-72
2024/02/26 08:18:02;;;;;;;3.97;1.97;;;;;;;10.96;59.42;98194.75;4156241;28;20101;-71
2024/02/26 08:20:02;;;;;;;5.32;2.33;;;;;;;11.10;59.10;98184.19;4154923;28;20267;-72
2024/02/26 08:22:03;;;;;;;4.03;1.67;;;;;;;11.31;58.65;98184.13;4154335;28;20066;-72
2024/02/26 08:24:04;;;;;;;4.85;2.20;;;;;;;11.13;58.75;98181.13;4157327;28;20030;-70
2024/02/26 08:26:07;;;;;;;4.88;2.15;;;;;;;11.27;58.41;98184.72;4161037;28;20030;-70
2024/02/26 08:28:07;;;;;;;3.60;1.52;;;;;;;11.34;58.38;98175.69;4161657;28;20510;-70
2024/02/26 08:30:08;;;;;;;4.40;1.70;;;;;;;11.36;58.32;98184.38;4162463;28;20029;-70
2024/02/26 08:32:10;;;;;;;4.97;1.95;;;;;;;11.46;58.47;98183.19;4162209;28;20032;-72
2024/02/26 08:34:11;;;;;;;5.65;2.17;;;;;;;11.36;58.50;98183.56;4177557;28;20032;-71
2024/02/26 08:36:11;;;;;;;7.00;2.38;;;;;;;11.22;58.97;98179.97;4179255;28;20021;-69
2024/02/26 08:38:12;;;;;;;6.07;1.95;;;;;;;11.03;59.66;98174.25;4180654;28;20116;-71
2024/02/26 08:40:13;;;;;;;5.35;2.10;;;;;;;10.87;60.30;98179.84;4180170;28;20022;-71
2024/02/26 08:42:13;;;;;;;4.38;2.10;;;;;;;11.15;59.89;98179.91;4178972;28;20052;-70
2024/02/26 08:44:14;;;;;;;4.88;2.10;;;;;;;11.28;59.65;98176.50;4180490;28;20063;-71
2024/02/26 08:46:14;;;;;;;4.57;2.10;;;;;;;11.36;59.98;98175.53;4170892;28;20006;-71
2024/02/26 08:48:15;;;;;;;4.68;2.08;;;;;;;11.45;59.62;98181.53;4162651;28;20037;-70
2024/02/26 08:50:15;;;;;;;4.20;1.92;;;;;;;11.26;60.27;98183.88;4162755;28;20085;-70
2024/02/26 08:52:16;;;;;;;3.75;1.70;;;;;;;11.33;60.34;98179.44;4162632;28;20069;-70
2024/02/26 08:54:16;;;;;;;4.13;2.08;;;;;;;11.22;60.66;98183.44;4149731;28;20034;-72
2024/02/26 08:56:17;;;;;;;3.63;1.60;;;;;;;11.56;59.94;98186.34;4148439;28;20018;-70
2024/02/26 08:58:18;;;;;;;3.20;1.70;;;;;;;11.59;59.74;98177.94;4149753;28;20033;-70
2024/02/26 09:00:20;;;;;;;4.05;1.90;;;;;;;11.59;59.99;98182.44;4154850;28;20053;-71
2024/02/26 09:02:20;;;;;;;5.00;2.17;;;;;;;11.46;60.39;98183.19;4149808;28;20030;-71
2024/02/26 09:04:21;;;;;;;4.47;2.22;;;;;;;11.54;60.32;98183.88;4147424;28;20041;-72
2024/02/26 09:06:21;;;;;;;7.57;2.72;;;;;;;11.47;60.63;98179.50;4148383;28;20040;-70
2024/02/26 09:08:22;;;;;;;9.18;4.82;;;;;;;11.37;61.43;98185.22;4147382;28;20108;-73
2024/02/26 09:10:22;;;;;;;9.65;4.25;;;;;;;11.43;61.23;98180.94;4149480;28;20510;-71
2024/02/26 09:12:23;;;;;;;14.57;6.70;;;;;;;11.56;61.02;98175.63;4150773;28;20427;-71
2024/02/26 09:14:23;;;;;;;9.73;4.28;;;;;;;11.58;61.21;98178.94;4153892;28;20025;-71
2024/02/26 09:16:24;;;;;;;7.03;3.95;;;;;;;11.68;60.78;98182.09;4152832;28;20042;-70
2024/02/26 09:18:25;;;;;;;5.70;2.63;;;;;;;11.66;60.97;98189.50;4142634;28;20044;-71
2024/02/26 09:20:25;;;;;;;5.72;2.70;;;;;;;11.62;61.28;98177.53;4152193;28;20052;-72
2024/02/26 09:22:25;;;;;;;5.72;2.60;;;;;;;11.71;61.07;98186.22;4151402;28;20112;-70
2024/02/26 09:24:26;;;;;;;4.68;2.50;;;;;;;11.70;61.28;98184.56;4147811;28;20022;-71
2024/02/26 09:26:27;;;;;;;5.47;2.55;;;;;;;11.78;61.37;98183.59;4147272;28;20632;-70
2024/02/26 09:28:31;;;;;;;4.22;2.15;;;;;;;11.78;61.46;98183.59;4147769;28;20036;-71
2024/02/26 09:30:31;;;;;;;5.53;2.35;;;;;;;11.97;60.89;98188.25;4147994;28;20072;-70
2024/02/26 09:32:32;;;;;;;4.00;2.00;;;;;;;11.97;60.75;98174.88;4146805;28;20017;-70